sensor_id;sensor_type;location;lat;lon;timestamp;P1;durP1;ratioP1;P2;durP2;ratioP2
18425;SDS011;9340;48.756;9.226;2023-07-09T00:01:44;4.93;;;4.00;;
18425;SDS011;9340;48.756;9.226;2023-07-09T00:04:11;5.03;;;4.55;;
18425;SDS011;9340;48.756;9.226;2023-07-09T00:06:38;8.93;;;3.97;;
18425;SDS011;9340;48.756;9.226;2023-07-09T00:09:06;4.47;;;3.92;;
18425;SDS011;9340;48.756;9.226;2023-07-09T00:11:37;4.72;;;4.20;;
18425;SDS011;9340;48.756;9.226;2023-07-09T00:14:04;6.57;;;4.60;;
18425;SDS011;9340;48.756;9.226;2023-07-09T00:16:31;4.28;;;3.97;;
18425;SDS011;9340;48.756;9.226;2023-07-09T00:18:59;4.43;;;4.03;;
18425;SDS011;9340;48.756;9.226;2023-07-09T00:21:26;4.43;;;4.00;;
18425;SDS011;9340;48.756;9.226;2023-07-09T00:23:58;5.28;;;4.38;;
18425;SDS011;9340;48.756;9.226;2023-07-09T00:26:27;4.88;;;4.47;;
18425;SDS011;9340;48.756;9.226;2023-07-09T00:28:55;6.90;;;4.55;;
18425;SDS011;9340;48.756;9.226;2023-07-09T00:31:22;4.85;;;4.40;;
18425;SDS011;9340;48.756;9.226;2023-07-09T00:33:48;7.05;;;4.90;;
18425;SDS011;9340;48.756;9.226;2023-07-09T00:36:18;4.70;;;4.30;;
18425;SDS011;9340;48.756;9.226;2023-07-09T00:38:48;5.57;;;4.68;;
18425;SDS011;9340;48.756;9.226;2023-07-09T00:41:17;4.97;;;4.55;;
18425;SDS011;9340;48.756;9.226;2023-07-09T00:43:46;5.53;;;4.38;;
18425;SDS011;9340;48.756;9.226;2023-07-09T00:46:15;4.97;;;4.47;;
18425;SDS011;9340;48.756;9.226;2023-07-09T00:48:58;5.43;;;4.93;;
18425;SDS011;9340;48.756;9.226;2023-07-09T00:51:31;4.97;;;4.57;;
18425;SDS011;9340;48.756;9.226;2023-07-09T00:54:03;6.00;;;4.50;;
18425;SDS011;9340;48.756;9.226;2023-07-09T00:56:39;5.38;;;4.88;;
18425;SDS011;9340;48.756;9.226;2023-07-09T00:59:11;5.35;;;4.85;;
18425;SDS011;9340;48.756;9.226;2023-07-09T01:01:43;6.15;;;5.20;;
18425;SDS011;9340;48.756;9.226;2023-07-09T01:04:12;6.00;;;5.40;;
18425;SDS011;9340;48.756;9.226;2023-07-09T01:06:43;6.32;;;4.60;;
18425;SDS011;9340;48.756;9.226;2023-07-09T01:09:11;4.95;;;4.50;;
18425;SDS011;9340;48.756;9.226;2023-07-09T01:11:38;5.60;;;4.43;;
18425;SDS011;9340;48.756;9.226;2023-07-09T01:14:06;5.20;;;4.70;;
18425;SDS011;9340;48.756;9.226;2023-07-09T01:16:35;5.40;;;4.95;;
18425;SDS011;9340;48.756;9.226;2023-07-09T01:19:05;7.57;;;4.97;;
18425;SDS011;9340;48.756;9.226;2023-07-09T01:21:34;5.88;;;5.25;;
18425;SDS011;9340;48.756;9.226;2023-07-09T01:24:10;5.55;;;4.93;;
18425;SDS011;9340;48.756;9.226;2023-07-09T01:26:39;5.45;;;4.95;;
18425;SDS011;9340;48.756;9.226;2023-07-09T01:29:06;5.72;;;5.15;;
18425;SDS011;9340;48.756;9.226;2023-07-09T01:31:33;5.35;;;4.85;;
18425;SDS011;9340;48.756;9.226;2023-07-09T01:34:00;5.38;;;4.88;;
18425;SDS011;9340;48.756;9.226;2023-07-09T01:36:27;6.97;;;4.68;;
18425;SDS011;9340;48.756;9.226;2023-07-09T01:38:55;5.50;;;4.88;;
18425;SDS011;9340;48.756;9.226;2023-07-09T01:41:22;5.40;;;4.90;;
18425;SDS011;9340;48.756;9.226;2023-07-09T01:43:49;6.30;;;5.15;;
18425;SDS011;9340;48.756;9.226;2023-07-09T01:46:16;5.70;;;5.07;;
18425;SDS011;9340;48.756;9.226;2023-07-09T01:48:42;5.57;;;5.07;;
18425;SDS011;9340;48.756;9.226;2023-07-09T01:51:10;5.43;;;5.03;;
18425;SDS011;9340;48.756;9.226;2023-07-09T01:53:38;5.80;;;5.00;;
18425;SDS011;9340;48.756;9.226;2023-07-09T01:56:07;5.60;;;5.10;;
18425;SDS011;9340;48.756;9.226;2023-07-09T01:58:34;5.35;;;4.85;;
18425;SDS011;9340;48.756;9.226;2023-07-09T02:01:01;5.70;;;5.18;;
18425;SDS011;9340;48.756;9.226;2023-07-09T02:03:28;6.05;;;5.00;;
18425;SDS011;9340;48.756;9.226;2023-07-09T02:05:54;5.95;;;5.00;;
18425;SDS011;9340;48.756;9.226;2023-07-09T02:08:22;5.68;;;5.18;;
18425;SDS011;9340;48.756;9.226;2023-07-09T02:10:49;6.05;;;5.25;;
18425;SDS011;9340;48.756;9.226;2023-07-09T02:13:18;6.18;;;5.53;;
18425;SDS011;9340;48.756;9.226;2023-07-09T02:15:44;5.65;;;4.95;;
18425;SDS011;9340;48.756;9.226;2023-07-09T02:18:11;10.88;;;5.30;;
18425;SDS011;9340;48.756;9.226;2023-07-09T02:20:39;6.00;;;5.40;;
18425;SDS011;9340;48.756;9.226;2023-07-09T02:23:05;7.45;;;5.25;;
18425;SDS011;9340;48.756;9.226;2023-07-09T02:25:32;6.38;;;5.78;;
18425;SDS011;9340;48.756;9.226;2023-07-09T02:27:59;5.65;;;5.15;;
18425;SDS011;9340;48.756;9.226;2023-07-09T02:30:27;5.40;;;5.00;;
18425;SDS011;9340;48.756;9.226;2023-07-09T02:32:54;5.70;;;5.05;;
18425;SDS011;9340;48.756;9.226;2023-07-09T02:35:21;6.03;;;5.43;;
18425;SDS011;9340;48.756;9.226;2023-07-09T02:37:48;5.90;;;5.40;;
18425;SDS011;9340;48.756;9.226;2023-07-09T02:40:15;6.78;;;5.82;;
18425;SDS011;9340;48.756;9.226;2023-07-09T02:42:42;5.10;;;4.70;;
18425;SDS011;9340;48.756;9.226;2023-07-09T02:45:09;8.57;;;5.63;;
18425;SDS011;9340;48.756;9.226;2023-07-09T02:47:38;6.25;;;5.72;;
18425;SDS011;9340;48.756;9.226;2023-07-09T02:50:05;6.07;;;5.47;;
18425;SDS011;9340;48.756;9.226;2023-07-09T02:52:32;5.47;;;4.97;;
18425;SDS011;9340;48.756;9.226;2023-07-09T02:54:58;6.15;;;5.50;;
18425;SDS011;9340;48.756;9.226;2023-07-09T02:57:25;6.13;;;5.57;;
18425;SDS011;9340;48.756;9.226;2023-07-09T02:59:52;6.95;;;5.78;;
18425;SDS011;9340;48.756;9.226;2023-07-09T03:02:18;6.47;;;5.53;;
18425;SDS011;9340;48.756;9.226;2023-07-09T03:04:47;5.75;;;5.00;;
18425;SDS011;9340;48.756;9.226;2023-07-09T03:07:14;5.72;;;5.18;;
18425;SDS011;9340;48.756;9.226;2023-07-09T03:09:41;7.15;;;5.32;;
18425;SDS011;9340;48.756;9.226;2023-07-09T03:12:08;5.95;;;5.40;;
18425;SDS011;9340;48.756;9.226;2023-07-09T03:14:35;6.10;;;5.60;;
18425;SDS011;9340;48.756;9.226;2023-07-09T03:17:02;6.00;;;5.40;;
18425;SDS011;9340;48.756;9.226;2023-07-09T03:19:29;5.80;;;5.20;;
18425;SDS011;9340;48.756;9.226;2023-07-09T03:21:57;6.18;;;4.95;;
18425;SDS011;9340;48.756;9.226;2023-07-09T03:24:23;6.38;;;5.78;;
18425;SDS011;9340;48.756;9.226;2023-07-09T03:26:50;7.00;;;5.95;;
18425;SDS011;9340;48.756;9.226;2023-07-09T03:29:17;6.20;;;5.60;;
18425;SDS011;9340;48.756;9.226;2023-07-09T03:31:44;5.88;;;5.38;;
18425;SDS011;9340;48.756;9.226;2023-07-09T03:34:10;6.30;;;5.65;;
18425;SDS011;9340;48.756;9.226;2023-07-09T03:36:37;6.00;;;5.50;;
18425;SDS011;9340;48.756;9.226;2023-07-09T03:39:05;6.63;;;5.60;;
18425;SDS011;9340;48.756;9.226;2023-07-09T03:41:32;5.95;;;5.35;;
18425;SDS011;9340;48.756;9.226;2023-07-09T03:43:59;5.70;;;5.03;;
18425;SDS011;9340;48.756;9.226;2023-07-09T03:46:26;6.38;;;5.10;;
18425;SDS011;9340;48.756;9.226;2023-07-09T03:48:52;5.82;;;5.18;;
18425;SDS011;9340;48.756;9.226;2023-07-09T03:51:19;5.90;;;5.40;;
18425;SDS011;9340;48.756;9.226;2023-07-09T03:53:46;7.32;;;5.47;;
18425;SDS011;9340;48.756;9.226;2023-07-09T03:56:14;6.00;;;5.40;;
18425;SDS011;9340;48.756;9.226;2023-07-09T03:58:40;6.32;;;5.32;;
18425;SDS011;9340;48.756;9.226;2023-07-09T04:01:07;6.60;;;5.35;;
18425;SDS011;9340;48.756;9.226;2023-07-09T04:03:34;5.60;;;5.10;;
18425;SDS011;9340;48.756;9.226;2023-07-09T04:06:01;5.95;;;5.35;;
18425;SDS011;9340;48.756;9.226;2023-07-09T04:08:27;5.35;;;4.95;;
18425;SDS011;9340;48.756;9.226;2023-07-09T04:10:54;6.55;;;5.75;;
18425;SDS011;9340;48.756;9.226;2023-07-09T04:13:26;6.30;;;5.80;;
18425;SDS011;9340;48.756;9.226;2023-07-09T04:15:53;5.93;;;5.43;;
18425;SDS011;9340;48.756;9.226;2023-07-09T04:18:20;6.68;;;5.32;;
18425;SDS011;9340;48.756;9.226;2023-07-09T04:20:47;6.55;;;5.45;;
18425;SDS011;9340;48.756;9.226;2023-07-09T04:23:15;6.35;;;5.75;;
18425;SDS011;9340;48.756;9.226;2023-07-09T04:25:42;6.30;;;5.70;;
18425;SDS011;9340;48.756;9.226;2023-07-09T04:28:09;6.35;;;5.72;;
18425;SDS011;9340;48.756;9.226;2023-07-09T04:30:37;5.97;;;5.03;;
18425;SDS011;9340;48.756;9.226;2023-07-09T04:33:03;6.32;;;5.30;;
18425;SDS011;9340;48.756;9.226;2023-07-09T04:35:31;5.78;;;5.28;;
18425;SDS011;9340;48.756;9.226;2023-07-09T04:37:57;7.38;;;5.35;;
18425;SDS011;9340;48.756;9.226;2023-07-09T04:40:24;6.18;;;5.60;;
18425;SDS011;9340;48.756;9.226;2023-07-09T04:42:51;5.90;;;5.40;;
18425;SDS011;9340;48.756;9.226;2023-07-09T04:45:18;7.22;;;5.68;;
18425;SDS011;9340;48.756;9.226;2023-07-09T04:47:46;6.15;;;5.30;;
18425;SDS011;9340;48.756;9.226;2023-07-09T04:50:12;6.05;;;5.03;;
18425;SDS011;9340;48.756;9.226;2023-07-09T04:52:39;5.32;;;4.80;;
18425;SDS011;9340;48.756;9.226;2023-07-09T04:55:06;5.75;;;5.25;;
18425;SDS011;9340;48.756;9.226;2023-07-09T04:57:33;7.38;;;5.53;;
18425;SDS011;9340;48.756;9.226;2023-07-09T05:00:00;6.20;;;5.60;;
18425;SDS011;9340;48.756;9.226;2023-07-09T05:02:29;6.55;;;5.95;;
18425;SDS011;9340;48.756;9.226;2023-07-09T05:04:58;5.90;;;5.40;;
18425;SDS011;9340;48.756;9.226;2023-07-09T05:07:25;5.88;;;5.38;;
18425;SDS011;9340;48.756;9.226;2023-07-09T05:09:52;5.88;;;5.38;;
18425;SDS011;9340;48.756;9.226;2023-07-09T05:12:19;5.30;;;4.90;;
18425;SDS011;9340;48.756;9.226;2023-07-09T05:14:46;6.13;;;5.63;;
18425;SDS011;9340;48.756;9.226;2023-07-09T05:17:12;6.25;;;5.63;;
18425;SDS011;9340;48.756;9.226;2023-07-09T05:19:39;6.65;;;5.55;;
18425;SDS011;9340;48.756;9.226;2023-07-09T05:22:07;6.38;;;5.70;;
18425;SDS011;9340;48.756;9.226;2023-07-09T05:24:34;8.02;;;5.45;;
18425;SDS011;9340;48.756;9.226;2023-07-09T05:27:00;5.45;;;4.95;;
18425;SDS011;9340;48.756;9.226;2023-07-09T05:29:27;5.60;;;5.10;;
18425;SDS011;9340;48.756;9.226;2023-07-09T05:31:54;6.30;;;4.88;;
18425;SDS011;9340;48.756;9.226;2023-07-09T05:34:20;5.75;;;5.25;;
18425;SDS011;9340;48.756;9.226;2023-07-09T05:36:47;6.57;;;6.03;;
18425;SDS011;9340;48.756;9.226;2023-07-09T05:39:15;5.82;;;5.32;;
18425;SDS011;9340;48.756;9.226;2023-07-09T05:41:42;5.95;;;5.45;;
18425;SDS011;9340;48.756;9.226;2023-07-09T05:44:09;7.07;;;6.05;;
18425;SDS011;9340;48.756;9.226;2023-07-09T05:46:36;6.40;;;5.38;;
18425;SDS011;9340;48.756;9.226;2023-07-09T05:49:03;5.93;;;5.43;;
18425;SDS011;9340;48.756;9.226;2023-07-09T05:51:31;5.95;;;5.45;;
18425;SDS011;9340;48.756;9.226;2023-07-09T05:53:58;5.85;;;5.38;;
18425;SDS011;9340;48.756;9.226;2023-07-09T05:56:26;6.15;;;4.72;;
18425;SDS011;9340;48.756;9.226;2023-07-09T05:58:53;5.63;;;5.10;;
18425;SDS011;9340;48.756;9.226;2023-07-09T06:01:21;5.88;;;5.35;;
18425;SDS011;9340;48.756;9.226;2023-07-09T06:03:48;5.50;;;5.00;;
18425;SDS011;9340;48.756;9.226;2023-07-09T06:06:14;5.75;;;5.25;;
18425;SDS011;9340;48.756;9.226;2023-07-09T06:08:42;6.28;;;5.68;;
18425;SDS011;9340;48.756;9.226;2023-07-09T06:11:08;5.70;;;5.20;;
18425;SDS011;9340;48.756;9.226;2023-07-09T06:13:36;7.47;;;5.30;;
18425;SDS011;9340;48.756;9.226;2023-07-09T06:16:03;6.60;;;5.97;;
18425;SDS011;9340;48.756;9.226;2023-07-09T06:18:30;6.63;;;6.03;;
18425;SDS011;9340;48.756;9.226;2023-07-09T06:20:58;6.70;;;5.80;;
18425;SDS011;9340;48.756;9.226;2023-07-09T06:23:26;7.00;;;5.80;;
18425;SDS011;9340;48.756;9.226;2023-07-09T06:25:53;5.85;;;5.30;;
18425;SDS011;9340;48.756;9.226;2023-07-09T06:28:21;6.10;;;5.50;;
18425;SDS011;9340;48.756;9.226;2023-07-09T06:30:50;7.03;;;5.07;;
18425;SDS011;9340;48.756;9.226;2023-07-09T06:33:17;5.93;;;5.18;;
18425;SDS011;9340;48.756;9.226;2023-07-09T06:35:46;6.88;;;5.88;;
18425;SDS011;9340;48.756;9.226;2023-07-09T06:38:13;5.72;;;5.22;;
18425;SDS011;9340;48.756;9.226;2023-07-09T06:40:40;6.28;;;5.68;;
18425;SDS011;9340;48.756;9.226;2023-07-09T06:43:07;7.13;;;5.72;;
18425;SDS011;9340;48.756;9.226;2023-07-09T06:45:34;5.85;;;5.40;;
18425;SDS011;9340;48.756;9.226;2023-07-09T06:48:02;6.25;;;5.47;;
18425;SDS011;9340;48.756;9.226;2023-07-09T06:50:32;6.38;;;5.80;;
18425;SDS011;9340;48.756;9.226;2023-07-09T06:52:59;6.00;;;5.47;;
18425;SDS011;9340;48.756;9.226;2023-07-09T06:55:26;7.13;;;6.32;;
18425;SDS011;9340;48.756;9.226;2023-07-09T06:57:52;6.53;;;5.72;;
18425;SDS011;9340;48.756;9.226;2023-07-09T07:00:19;6.45;;;5.70;;
18425;SDS011;9340;48.756;9.226;2023-07-09T07:02:46;6.55;;;5.95;;
18425;SDS011;9340;48.756;9.226;2023-07-09T07:05:14;5.85;;;5.22;;
18425;SDS011;9340;48.756;9.226;2023-07-09T07:07:41;7.13;;;6.15;;
18425;SDS011;9340;48.756;9.226;2023-07-09T07:10:08;6.32;;;5.75;;
18425;SDS011;9340;48.756;9.226;2023-07-09T07:12:40;6.50;;;5.47;;
18425;SDS011;9340;48.756;9.226;2023-07-09T07:15:09;5.53;;;5.03;;
18425;SDS011;9340;48.756;9.226;2023-07-09T07:17:36;6.40;;;5.90;;
18425;SDS011;9340;48.756;9.226;2023-07-09T07:20:03;7.22;;;5.88;;
18425;SDS011;9340;48.756;9.226;2023-07-09T07:22:32;6.53;;;5.93;;
18425;SDS011;9340;48.756;9.226;2023-07-09T07:24:58;6.20;;;5.60;;
18425;SDS011;9340;48.756;9.226;2023-07-09T07:27:25;8.65;;;5.82;;
18425;SDS011;9340;48.756;9.226;2023-07-09T07:29:52;5.97;;;5.38;;
18425;SDS011;9340;48.756;9.226;2023-07-09T07:32:19;6.90;;;5.60;;
18425;SDS011;9340;48.756;9.226;2023-07-09T07:34:46;5.90;;;5.30;;
18425;SDS011;9340;48.756;9.226;2023-07-09T07:37:13;7.45;;;5.80;;
18425;SDS011;9340;48.756;9.226;2023-07-09T07:39:41;7.20;;;6.20;;
18425;SDS011;9340;48.756;9.226;2023-07-09T07:42:08;6.95;;;5.53;;
18425;SDS011;9340;48.756;9.226;2023-07-09T07:44:35;6.05;;;5.55;;
18425;SDS011;9340;48.756;9.226;2023-07-09T07:47:02;7.38;;;5.80;;
18425;SDS011;9340;48.756;9.226;2023-07-09T07:49:29;6.82;;;6.18;;
18425;SDS011;9340;48.756;9.226;2023-07-09T07:51:56;6.47;;;5.88;;
18425;SDS011;9340;48.756;9.226;2023-07-09T07:54:23;6.97;;;5.47;;
18425;SDS011;9340;48.756;9.226;2023-07-09T07:56:50;6.82;;;6.13;;
18425;SDS011;9340;48.756;9.226;2023-07-09T07:59:17;7.30;;;6.57;;
18425;SDS011;9340;48.756;9.226;2023-07-09T08:01:44;6.68;;;6.18;;
18425;SDS011;9340;48.756;9.226;2023-07-09T08:04:10;7.30;;;5.97;;
18425;SDS011;9340;48.756;9.226;2023-07-09T08:06:37;8.85;;;6.20;;
18425;SDS011;9340;48.756;9.226;2023-07-09T08:09:04;6.07;;;5.25;;
18425;SDS011;9340;48.756;9.226;2023-07-09T08:11:30;6.80;;;6.30;;
18425;SDS011;9340;48.756;9.226;2023-07-09T08:13:58;5.85;;;5.45;;
18425;SDS011;9340;48.756;9.226;2023-07-09T08:16:25;6.47;;;5.88;;
18425;SDS011;9340;48.756;9.226;2023-07-09T08:18:53;6.18;;;5.55;;
18425;SDS011;9340;48.756;9.226;2023-07-09T08:21:19;5.95;;;5.50;;
18425;SDS011;9340;48.756;9.226;2023-07-09T08:23:46;6.88;;;5.97;;
18425;SDS011;9340;48.756;9.226;2023-07-09T08:26:12;9.20;;;6.40;;
18425;SDS011;9340;48.756;9.226;2023-07-09T08:28:39;7.95;;;5.65;;
18425;SDS011;9340;48.756;9.226;2023-07-09T08:31:07;6.30;;;5.70;;
18425;SDS011;9340;48.756;9.226;2023-07-09T08:33:34;6.40;;;5.72;;
18425;SDS011;9340;48.756;9.226;2023-07-09T08:36:01;9.40;;;5.80;;
18425;SDS011;9340;48.756;9.226;2023-07-09T08:38:28;6.70;;;5.65;;
18425;SDS011;9340;48.756;9.226;2023-07-09T08:40:56;10.55;;;5.47;;
18425;SDS011;9340;48.756;9.226;2023-07-09T08:43:29;6.03;;;5.53;;
18425;SDS011;9340;48.756;9.226;2023-07-09T08:46:02;9.10;;;5.82;;
18425;SDS011;9340;48.756;9.226;2023-07-09T08:48:37;7.43;;;5.47;;
18425;SDS011;9340;48.756;9.226;2023-07-09T08:51:08;6.53;;;5.50;;
18425;SDS011;9340;48.756;9.226;2023-07-09T08:53:40;5.70;;;5.00;;
18425;SDS011;9340;48.756;9.226;2023-07-09T08:56:10;6.03;;;5.40;;
18425;SDS011;9340;48.756;9.226;2023-07-09T08:58:39;6.80;;;6.20;;
18425;SDS011;9340;48.756;9.226;2023-07-09T09:01:14;6.30;;;5.70;;
18425;SDS011;9340;48.756;9.226;2023-07-09T09:03:45;6.47;;;5.75;;
18425;SDS011;9340;48.756;9.226;2023-07-09T09:06:15;6.00;;;5.45;;
18425;SDS011;9340;48.756;9.226;2023-07-09T09:08:44;7.00;;;5.57;;
18425;SDS011;9340;48.756;9.226;2023-07-09T09:11:22;6.20;;;5.60;;
18425;SDS011;9340;48.756;9.226;2023-07-09T09:13:56;6.43;;;5.38;;
18425;SDS011;9340;48.756;9.226;2023-07-09T09:16:30;5.78;;;5.28;;
18425;SDS011;9340;48.756;9.226;2023-07-09T09:18:59;5.28;;;4.78;;
18425;SDS011;9340;48.756;9.226;2023-07-09T09:21:28;5.70;;;5.20;;
18425;SDS011;9340;48.756;9.226;2023-07-09T09:23:58;5.47;;;4.90;;
18425;SDS011;9340;48.756;9.226;2023-07-09T09:26:38;8.00;;;5.70;;
18425;SDS011;9340;48.756;9.226;2023-07-09T09:29:09;6.07;;;5.47;;
18425;SDS011;9340;48.756;9.226;2023-07-09T09:31:39;5.30;;;4.80;;
18425;SDS011;9340;48.756;9.226;2023-07-09T09:34:16;5.22;;;4.57;;
18425;SDS011;9340;48.756;9.226;2023-07-09T09:36:44;5.75;;;5.15;;
18425;SDS011;9340;48.756;9.226;2023-07-09T09:39:10;6.05;;;4.90;;
18425;SDS011;9340;48.756;9.226;2023-07-09T09:41:37;5.53;;;5.03;;
18425;SDS011;9340;48.756;9.226;2023-07-09T09:44:05;5.63;;;4.90;;
18425;SDS011;9340;48.756;9.226;2023-07-09T09:46:44;6.32;;;4.97;;
18425;SDS011;9340;48.756;9.226;2023-07-09T09:49:11;5.80;;;5.18;;
18425;SDS011;9340;48.756;9.226;2023-07-09T09:51:39;5.28;;;4.78;;
18425;SDS011;9340;48.756;9.226;2023-07-09T09:54:11;4.80;;;4.45;;
18425;SDS011;9340;48.756;9.226;2023-07-09T09:56:42;5.63;;;5.13;;
18425;SDS011;9340;48.756;9.226;2023-07-09T09:59:13;7.10;;;4.97;;
18425;SDS011;9340;48.756;9.226;2023-07-09T10:01:46;5.15;;;4.65;;
18425;SDS011;9340;48.756;9.226;2023-07-09T10:04:16;4.85;;;4.45;;
18425;SDS011;9340;48.756;9.226;2023-07-09T10:06:45;5.53;;;4.85;;
18425;SDS011;9340;48.756;9.226;2023-07-09T10:09:16;4.80;;;4.40;;
18425;SDS011;9340;48.756;9.226;2023-07-09T10:11:52;5.63;;;5.13;;
18425;SDS011;9340;48.756;9.226;2023-07-09T10:14:31;7.00;;;4.40;;
18425;SDS011;9340;48.756;9.226;2023-07-09T10:17:05;6.35;;;4.30;;
18425;SDS011;9340;48.756;9.226;2023-07-09T10:19:42;6.43;;;4.40;;
18425;SDS011;9340;48.756;9.226;2023-07-09T10:22:18;5.75;;;5.00;;
18425;SDS011;9340;48.756;9.226;2023-07-09T10:24:51;7.97;;;5.35;;
18425;SDS011;9340;48.756;9.226;2023-07-09T10:27:29;5.85;;;4.28;;
18425;SDS011;9340;48.756;9.226;2023-07-09T10:30:13;5.60;;;4.30;;
18425;SDS011;9340;48.756;9.226;2023-07-09T10:32:50;4.75;;;4.30;;
18425;SDS011;9340;48.756;9.226;2023-07-09T10:35:29;5.00;;;4.50;;
18425;SDS011;9340;48.756;9.226;2023-07-09T10:38:06;4.63;;;4.18;;
18425;SDS011;9340;48.756;9.226;2023-07-09T10:40:54;5.70;;;4.82;;
18425;SDS011;9340;48.756;9.226;2023-07-09T10:43:25;6.65;;;6.03;;
18425;SDS011;9340;48.756;9.226;2023-07-09T10:46:00;4.50;;;4.10;;
18425;SDS011;9340;48.756;9.226;2023-07-09T10:48:35;5.25;;;4.75;;
18425;SDS011;9340;48.756;9.226;2023-07-09T10:51:08;4.75;;;4.20;;
18425;SDS011;9340;48.756;9.226;2023-07-09T10:53:43;5.13;;;4.72;;
18425;SDS011;9340;48.756;9.226;2023-07-09T10:56:12;4.65;;;4.25;;
18425;SDS011;9340;48.756;9.226;2023-07-09T10:58:43;5.30;;;4.65;;
18425;SDS011;9340;48.756;9.226;2023-07-09T11:01:16;6.10;;;4.72;;
18425;SDS011;9340;48.756;9.226;2023-07-09T11:03:54;6.03;;;4.60;;
18425;SDS011;9340;48.756;9.226;2023-07-09T11:06:26;4.85;;;4.45;;
18425;SDS011;9340;48.756;9.226;2023-07-09T11:08:58;6.25;;;4.43;;
18425;SDS011;9340;48.756;9.226;2023-07-09T11:11:29;6.75;;;4.95;;
18425;SDS011;9340;48.756;9.226;2023-07-09T11:13:59;4.97;;;4.45;;
18425;SDS011;9340;48.756;9.226;2023-07-09T11:16:31;5.13;;;4.47;;
18425;SDS011;9340;48.756;9.226;2023-07-09T11:19:03;5.00;;;4.53;;
18425;SDS011;9340;48.756;9.226;2023-07-09T11:21:32;6.50;;;5.38;;
18425;SDS011;9340;48.756;9.226;2023-07-09T11:23:59;5.60;;;5.10;;
18425;SDS011;9340;48.756;9.226;2023-07-09T11:26:27;5.63;;;4.55;;
18425;SDS011;9340;48.756;9.226;2023-07-09T11:28:55;8.30;;;5.10;;
18425;SDS011;9340;48.756;9.226;2023-07-09T11:31:36;7.05;;;5.30;;
18425;SDS011;9340;48.756;9.226;2023-07-09T11:34:09;5.32;;;4.82;;
18425;SDS011;9340;48.756;9.226;2023-07-09T11:36:49;7.35;;;5.07;;
18425;SDS011;9340;48.756;9.226;2023-07-09T11:39:20;5.75;;;5.10;;
18425;SDS011;9340;48.756;9.226;2023-07-09T11:41:48;7.15;;;5.03;;
18425;SDS011;9340;48.756;9.226;2023-07-09T11:44:17;6.00;;;5.40;;
18425;SDS011;9340;48.756;9.226;2023-07-09T11:46:49;7.50;;;5.47;;
18425;SDS011;9340;48.756;9.226;2023-07-09T11:49:39;7.43;;;5.72;;
18425;SDS011;9340;48.756;9.226;2023-07-09T11:52:16;6.97;;;5.63;;
18425;SDS011;9340;48.756;9.226;2023-07-09T11:54:48;6.53;;;5.57;;
18425;SDS011;9340;48.756;9.226;2023-07-09T11:57:16;5.78;;;5.20;;
18425;SDS011;9340;48.756;9.226;2023-07-09T11:59:44;8.02;;;5.60;;
18425;SDS011;9340;48.756;9.226;2023-07-09T12:02:16;7.95;;;5.50;;
18425;SDS011;9340;48.756;9.226;2023-07-09T12:04:48;7.18;;;5.90;;
18425;SDS011;9340;48.756;9.226;2023-07-09T12:07:16;8.90;;;5.57;;
18425;SDS011;9340;48.756;9.226;2023-07-09T12:09:46;6.10;;;5.50;;
18425;SDS011;9340;48.756;9.226;2023-07-09T12:12:17;6.70;;;4.85;;
18425;SDS011;9340;48.756;9.226;2023-07-09T12:14:44;11.18;;;6.03;;
18425;SDS011;9340;48.756;9.226;2023-07-09T12:17:11;6.88;;;6.10;;
18425;SDS011;9340;48.756;9.226;2023-07-09T12:19:38;7.72;;;5.70;;
18425;SDS011;9340;48.756;9.226;2023-07-09T12:22:09;6.60;;;5.47;;
18425;SDS011;9340;48.756;9.226;2023-07-09T12:24:42;7.85;;;6.15;;
18425;SDS011;9340;48.756;9.226;2023-07-09T12:27:18;9.93;;;5.72;;
18425;SDS011;9340;48.756;9.226;2023-07-09T12:29:47;6.10;;;5.43;;
18425;SDS011;9340;48.756;9.226;2023-07-09T12:32:16;5.28;;;4.78;;
18425;SDS011;9340;48.756;9.226;2023-07-09T12:34:46;6.10;;;5.55;;
18425;SDS011;9340;48.756;9.226;2023-07-09T12:37:14;6.07;;;5.47;;
18425;SDS011;9340;48.756;9.226;2023-07-09T12:39:42;5.65;;;5.15;;
18425;SDS011;9340;48.756;9.226;2023-07-09T12:42:12;6.97;;;4.80;;
18425;SDS011;9340;48.756;9.226;2023-07-09T12:44:42;8.75;;;5.80;;
18425;SDS011;9340;48.756;9.226;2023-07-09T12:47:11;6.20;;;5.63;;
18425;SDS011;9340;48.756;9.226;2023-07-09T12:49:40;11.98;;;6.45;;
18425;SDS011;9340;48.756;9.226;2023-07-09T12:52:10;7.50;;;6.03;;
18425;SDS011;9340;48.756;9.226;2023-07-09T12:54:41;6.10;;;5.50;;
18425;SDS011;9340;48.756;9.226;2023-07-09T12:57:17;6.22;;;5.63;;
18425;SDS011;9340;48.756;9.226;2023-07-09T12:59:50;5.75;;;5.18;;
18425;SDS011;9340;48.756;9.226;2023-07-09T13:02:18;6.15;;;5.63;;
18425;SDS011;9340;48.756;9.226;2023-07-09T13:04:47;5.95;;;5.30;;
18425;SDS011;9340;48.756;9.226;2023-07-09T13:07:29;6.55;;;5.68;;
18425;SDS011;9340;48.756;9.226;2023-07-09T13:10:03;8.30;;;5.90;;
18425;SDS011;9340;48.756;9.226;2023-07-09T13:12:32;7.38;;;5.45;;
18425;SDS011;9340;48.756;9.226;2023-07-09T13:15:00;4.93;;;4.50;;
18425;SDS011;9340;48.756;9.226;2023-07-09T13:17:29;5.68;;;4.80;;
18425;SDS011;9340;48.756;9.226;2023-07-09T13:19:57;8.38;;;6.00;;
18425;SDS011;9340;48.756;9.226;2023-07-09T13:22:24;6.18;;;5.07;;
18425;SDS011;9340;48.756;9.226;2023-07-09T13:24:51;7.57;;;4.60;;
18425;SDS011;9340;48.756;9.226;2023-07-09T13:27:19;5.15;;;4.38;;
18425;SDS011;9340;48.756;9.226;2023-07-09T13:29:46;6.15;;;5.63;;
18425;SDS011;9340;48.756;9.226;2023-07-09T13:32:13;10.60;;;5.68;;
18425;SDS011;9340;48.756;9.226;2023-07-09T13:34:42;5.95;;;5.45;;
18425;SDS011;9340;48.756;9.226;2023-07-09T13:37:10;6.95;;;5.90;;
18425;SDS011;9340;48.756;9.226;2023-07-09T13:39:39;7.30;;;5.28;;
18425;SDS011;9340;48.756;9.226;2023-07-09T13:42:08;6.82;;;5.07;;
18425;SDS011;9340;48.756;9.226;2023-07-09T13:44:39;6.63;;;5.60;;
18425;SDS011;9340;48.756;9.226;2023-07-09T13:47:10;5.80;;;4.93;;
18425;SDS011;9340;48.756;9.226;2023-07-09T13:49:39;6.20;;;5.60;;
18425;SDS011;9340;48.756;9.226;2023-07-09T13:52:08;7.57;;;5.03;;
18425;SDS011;9340;48.756;9.226;2023-07-09T13:54:40;5.90;;;5.25;;
18425;SDS011;9340;48.756;9.226;2023-07-09T13:57:10;4.82;;;4.43;;
18425;SDS011;9340;48.756;9.226;2023-07-09T13:59:41;5.63;;;4.88;;
18425;SDS011;9340;48.756;9.226;2023-07-09T14:02:18;5.72;;;4.97;;
18425;SDS011;9340;48.756;9.226;2023-07-09T14:04:49;10.85;;;4.90;;
18425;SDS011;9340;48.756;9.226;2023-07-09T14:07:26;5.43;;;4.50;;
18425;SDS011;9340;48.756;9.226;2023-07-09T14:09:56;5.28;;;4.78;;
18425;SDS011;9340;48.756;9.226;2023-07-09T14:12:24;6.30;;;5.10;;
18425;SDS011;9340;48.756;9.226;2023-07-09T14:14:53;5.70;;;5.10;;
18425;SDS011;9340;48.756;9.226;2023-07-09T14:17:23;6.05;;;4.78;;
18425;SDS011;9340;48.756;9.226;2023-07-09T14:19:50;6.88;;;5.00;;
18425;SDS011;9340;48.756;9.226;2023-07-09T14:22:21;6.35;;;5.05;;
18425;SDS011;9340;48.756;9.226;2023-07-09T14:24:53;5.90;;;5.13;;
18425;SDS011;9340;48.756;9.226;2023-07-09T14:27:20;6.85;;;4.90;;
18425;SDS011;9340;48.756;9.226;2023-07-09T14:29:47;6.72;;;4.93;;
18425;SDS011;9340;48.756;9.226;2023-07-09T14:32:29;4.97;;;4.28;;
18425;SDS011;9340;48.756;9.226;2023-07-09T14:34:59;5.50;;;5.00;;
18425;SDS011;9340;48.756;9.226;2023-07-09T14:37:26;5.93;;;4.88;;
18425;SDS011;9340;48.756;9.226;2023-07-09T14:39:53;5.78;;;4.97;;
18425;SDS011;9340;48.756;9.226;2023-07-09T14:42:20;7.22;;;5.07;;
18425;SDS011;9340;48.756;9.226;2023-07-09T14:44:48;5.47;;;4.97;;
18425;SDS011;9340;48.756;9.226;2023-07-09T14:47:15;5.10;;;4.70;;
18425;SDS011;9340;48.756;9.226;2023-07-09T14:49:44;5.97;;;5.22;;
18425;SDS011;9340;48.756;9.226;2023-07-09T14:52:11;7.13;;;5.22;;
18425;SDS011;9340;48.756;9.226;2023-07-09T14:54:40;5.90;;;5.40;;
18425;SDS011;9340;48.756;9.226;2023-07-09T14:57:11;5.00;;;4.55;;
18425;SDS011;9340;48.756;9.226;2023-07-09T14:59:44;6.50;;;4.85;;
18425;SDS011;9340;48.756;9.226;2023-07-09T15:02:16;7.85;;;5.57;;
18425;SDS011;9340;48.756;9.226;2023-07-09T15:04:48;5.32;;;4.50;;
18425;SDS011;9340;48.756;9.226;2023-07-09T15:07:16;5.40;;;4.90;;
18425;SDS011;9340;48.756;9.226;2023-07-09T15:09:42;4.82;;;4.43;;
18425;SDS011;9340;48.756;9.226;2023-07-09T15:12:13;4.97;;;4.40;;